createdAt,value
2022-12-24T00:00:12.468Z,1.40
2022-12-24T00:01:10.206Z,1.29
2022-12-24T00:02:06.943Z,1.24
2022-12-24T00:03:03.869Z,1.26
2022-12-24T00:04:00.836Z,1.42
2022-12-24T00:05:01.178Z,1.35
2022-12-24T00:05:58.425Z,1.26
2022-12-24T00:06:55.027Z,1.19
2022-12-24T00:07:51.677Z,1.02
2022-12-24T00:08:49.001Z,0.69
2022-12-24T00:09:45.585Z,0.90
2022-12-24T00:10:42.154Z,0.98
2022-12-24T00:11:38.739Z,0.99
2022-12-24T00:12:35.811Z,0.98
2022-12-24T00:13:32.456Z,0.92
2022-12-24T00:14:29.202Z,1.05
2022-12-24T00:15:25.821Z,0.94
2022-12-24T00:16:22.559Z,0.87
2022-12-24T00:17:19.126Z,0.97
2022-12-24T00:18:16.465Z,1.19
2022-12-24T00:19:13.253Z,1.27
2022-12-24T00:20:10.288Z,1.15
2022-12-24T00:21:07.159Z,1.17
2022-12-24T00:22:03.784Z,1.29
2022-12-24T00:23:00.366Z,1.51
2022-12-24T00:23:57.003Z,1.69
2022-12-24T00:24:53.717Z,1.67
2022-12-24T00:25:50.536Z,0.93
2022-12-24T00:26:47.229Z,0.97
2022-12-24T00:27:43.866Z,0.84
2022-12-24T00:28:40.868Z,0.74
2022-12-24T00:29:37.582Z,0.86
2022-12-24T00:30:34.452Z,0.81
2022-12-24T00:31:31.315Z,0.79
2022-12-24T00:32:27.986Z,0.76
2022-12-24T00:33:24.971Z,0.74
2022-12-24T00:34:24.407Z,0.74
2022-12-24T00:35:21.121Z,1.13
2022-12-24T00:36:18.723Z,1.19
2022-12-24T00:37:15.417Z,1.24
2022-12-24T00:38:12.032Z,1.46
2022-12-24T00:39:08.744Z,1.60
2022-12-24T00:40:05.945Z,1.68
2022-12-24T00:41:04.797Z,1.71
2022-12-24T00:42:01.425Z,1.53
2022-12-24T00:42:58.351Z,1.55
2022-12-24T00:43:59.654Z,1.56
2022-12-24T00:44:56.250Z,1.32
2022-12-24T00:45:52.970Z,1.32
2022-12-24T00:46:49.687Z,1.22
2022-12-24T00:47:46.266Z,1.21
2022-12-24T00:48:42.847Z,0.99
2022-12-24T00:49:39.546Z,0.95
2022-12-24T00:50:36.127Z,0.95
2022-12-24T00:51:33.805Z,0.82
2022-12-24T00:52:30.769Z,0.78
2022-12-24T00:53:27.437Z,1.00
2022-12-24T00:54:24.070Z,0.85
2022-12-24T00:55:20.782Z,0.59
2022-12-24T00:56:17.792Z,0.71
2022-12-24T00:57:14.404Z,0.73
2022-12-24T00:58:12.301Z,0.65
2022-12-24T00:59:08.872Z,0.54
2022-12-24T01:00:06.384Z,0.60
2022-12-24T01:01:03.430Z,0.65
2022-12-24T01:02:00.290Z,0.60
2022-12-24T01:02:57.267Z,0.81
2022-12-24T01:04:14.467Z,0.59
2022-12-24T01:05:12.170Z,0.72
2022-12-24T01:06:13.108Z,0.43
2022-12-24T01:07:09.735Z,0.60
2022-12-24T01:08:06.396Z,0.38
2022-12-24T01:09:03.072Z,0.28
2022-12-24T01:09:59.700Z,0.30
2022-12-24T01:10:56.836Z,0.00
2022-12-24T01:11:53.577Z,0.29
2022-12-24T01:12:50.276Z,0.31
2022-12-24T01:13:46.928Z,0.20
2022-12-24T01:14:43.591Z,0.17
2022-12-24T01:15:40.285Z,0.35
2022-12-24T01:16:36.941Z,0.22
2022-12-24T01:17:34.835Z,0.57
2022-12-24T01:18:31.464Z,0.55
2022-12-24T01:19:28.181Z,0.50
2022-12-24T01:20:27.056Z,0.74
2022-12-24T01:21:23.766Z,0.97
2022-12-24T01:22:20.387Z,1.15
2022-12-24T01:23:16.950Z,1.26
2022-12-24T01:24:15.878Z,1.41
2022-12-24T01:25:12.698Z,1.54
2022-12-24T01:26:12.323Z,1.51
2022-12-24T01:27:09.506Z,1.29
2022-12-24T01:28:06.610Z,1.49
2022-12-24T01:29:04.493Z,1.13
2022-12-24T01:30:01.241Z,1.30
2022-12-24T01:30:57.923Z,1.00
2022-12-24T01:31:54.744Z,0.87
2022-12-24T01:32:51.385Z,0.43
2022-12-24T01:33:49.275Z,0.43
2022-12-24T01:34:45.888Z,0.59
2022-12-24T01:35:43.464Z,0.71
2022-12-24T01:36:40.170Z,0.79
2022-12-24T01:37:36.928Z,0.92
2022-12-24T01:38:33.698Z,0.97
2022-12-24T01:39:30.478Z,0.96
2022-12-24T01:40:45.918Z,1.02
2022-12-24T01:42:01.055Z,1.08
2022-12-24T01:43:16.478Z,1.27
2022-12-24T01:44:27.219Z,1.36
2022-12-24T01:45:40.501Z,1.31
2022-12-24T01:46:37.147Z,1.37
2022-12-24T01:47:33.885Z,1.49
2022-12-24T01:49:04.028Z,1.40
2022-12-24T01:50:12.944Z,0.94
2022-12-24T01:51:27.813Z,1.31
2022-12-24T01:52:28.697Z,1.40
2022-12-24T01:53:26.027Z,1.59
2022-12-24T01:54:26.193Z,1.09
2022-12-24T01:55:23.531Z,0.89
2022-12-24T01:56:21.330Z,0.95
2022-12-24T01:57:21.775Z,1.18
2022-12-24T01:58:20.611Z,1.10
2022-12-24T01:59:19.343Z,1.13
2022-12-24T02:00:16.421Z,0.94
2022-12-24T02:01:13.200Z,0.93
2022-12-24T02:02:10.860Z,0.86
2022-12-24T02:03:07.781Z,0.70
2022-12-24T02:04:13.434Z,0.50
2022-12-24T02:05:22.610Z,0.61
2022-12-24T02:06:20.759Z,0.21
2022-12-24T02:07:17.832Z,0.28
2022-12-24T02:08:15.542Z,0.52
2022-12-24T02:09:12.200Z,0.35
2022-12-24T02:10:12.983Z,0.20
2022-12-24T02:11:19.058Z,0.17
2022-12-24T02:12:15.920Z,0.20
2022-12-24T02:13:14.517Z,0.40
2022-12-24T02:14:12.086Z,0.52
2022-12-24T02:15:12.136Z,0.41
2022-12-24T02:16:30.407Z,0.45
2022-12-24T02:17:36.183Z,0.43
2022-12-24T02:18:44.596Z,0.22
2022-12-24T02:20:04.079Z,0.22
2022-12-24T02:21:22.191Z,0.33
2022-12-24T02:22:42.342Z,1.03
2022-12-24T02:24:02.776Z,1.17
2022-12-24T02:25:18.101Z,1.25
2022-12-24T02:26:32.855Z,1.26
2022-12-24T02:27:55.176Z,1.16
2022-12-24T02:29:06.719Z,1.17
2022-12-24T02:30:12.418Z,1.00
2022-12-24T02:31:16.619Z,0.72
2022-12-24T02:32:27.334Z,0.54
2022-12-24T02:33:35.923Z,0.41
2022-12-24T02:35:09.957Z,0.23
2022-12-24T02:36:13.591Z,0.46
2022-12-24T02:37:23.035Z,0.04
2022-12-24T02:38:19.676Z,0.24
2022-12-24T02:39:23.834Z,0.43
2022-12-24T02:40:31.626Z,0.54
2022-12-24T02:42:08.323Z,0.04
2022-12-24T02:43:15.113Z,0.33
2022-12-24T02:44:11.827Z,0.12
2022-12-24T02:45:13.379Z,0.21
2022-12-24T02:46:31.916Z,0.83
2022-12-24T02:47:34.164Z,0.61
2022-12-24T02:48:31.989Z,0.93
2022-12-24T02:49:28.605Z,0.39
2022-12-24T02:50:25.443Z,0.43
2022-12-24T02:51:25.010Z,-0.12
2022-12-24T02:52:38.043Z,0.11
2022-12-24T02:53:35.097Z,0.22
2022-12-24T02:54:32.693Z,0.13
2022-12-24T02:56:01.460Z,0.29
2022-12-24T02:57:45.967Z,0.43
2022-12-24T02:59:01.221Z,0.33
2022-12-24T03:00:01.630Z,0.42
2022-12-24T03:01:22.621Z,0.63
2022-12-24T03:03:07.748Z,0.44
2022-12-24T03:04:41.395Z,0.22
2022-12-24T03:05:50.321Z,0.15
2022-12-24T03:07:06.769Z,0.82
2022-12-24T03:08:15.442Z,0.66
2022-12-24T03:09:26.588Z,0.95
2022-12-24T03:10:52.739Z,1.06
2022-12-24T03:11:57.739Z,1.22
2022-12-24T03:13:00.429Z,0.95
2022-12-24T03:13:59.633Z,1.19
2022-12-24T03:14:57.130Z,0.85
2022-12-24T03:15:54.529Z,0.77
2022-12-24T03:16:51.396Z,0.59
2022-12-24T03:17:50.102Z,0.37
2022-12-24T03:18:49.552Z,0.20
2022-12-24T03:19:47.989Z,0.25
2022-12-24T03:20:51.289Z,0.52
2022-12-24T03:21:49.559Z,0.56
2022-12-24T03:22:46.499Z,0.86
2022-12-24T03:23:43.217Z,0.91
2022-12-24T03:24:39.951Z,0.41
2022-12-24T03:25:40.815Z,0.50
2022-12-24T03:26:39.195Z,0.66
2022-12-24T03:27:36.504Z,0.54
2022-12-24T03:28:33.756Z,0.07
2022-12-24T03:29:30.391Z,0.66
2022-12-24T03:30:27.202Z,0.84
2022-12-24T03:31:24.374Z,0.40
2022-12-24T03:32:28.487Z,0.59
2022-12-24T03:33:25.083Z,0.37
2022-12-24T03:34:21.679Z,0.19
2022-12-24T03:35:18.498Z,0.47
2022-12-24T03:36:15.161Z,0.48
2022-12-24T03:37:11.724Z,0.37
2022-12-24T03:38:08.324Z,0.44
2022-12-24T03:39:05.765Z,0.55
2022-12-24T03:40:02.590Z,0.62
2022-12-24T03:40:59.960Z,0.54
2022-12-24T03:41:56.696Z,0.96
2022-12-24T03:42:53.572Z,0.97
2022-12-24T03:43:50.231Z,1.07
2022-12-24T03:44:46.921Z,0.68
2022-12-24T03:45:43.729Z,0.61
2022-12-24T03:46:40.539Z,0.90
2022-12-24T03:47:37.209Z,1.16
2022-12-24T03:48:35.548Z,0.51
2022-12-24T03:49:32.205Z,0.31
2022-12-24T03:50:28.977Z,0.39
2022-12-24T03:51:26.773Z,0.37
2022-12-24T03:52:23.399Z,0.45
2022-12-24T03:53:19.985Z,0.52
2022-12-24T03:54:16.635Z,0.27
2022-12-24T03:55:13.496Z,0.39
2022-12-24T03:56:10.105Z,0.64
2022-12-24T03:57:06.758Z,0.71
2022-12-24T03:58:03.374Z,0.73
2022-12-24T03:58:59.924Z,0.82
2022-12-24T03:59:56.561Z,0.59
2022-12-24T04:00:54.286Z,0.52
2022-12-24T04:01:51.116Z,0.69
2022-12-24T04:02:48.005Z,0.60
2022-12-24T04:03:45.177Z,0.71
2022-12-24T04:04:41.980Z,0.87
2022-12-24T04:05:38.603Z,0.73
2022-12-24T04:06:35.305Z,0.86
2022-12-24T04:07:33.082Z,0.99
2022-12-24T04:08:29.733Z,0.72
2022-12-24T04:09:26.380Z,1.25
2022-12-24T04:10:22.915Z,1.15
2022-12-24T04:11:19.548Z,0.91
2022-12-24T04:12:16.170Z,1.18
2022-12-24T04:13:12.752Z,0.91
2022-12-24T04:14:09.369Z,0.60
2022-12-24T04:15:06.608Z,0.33
2022-12-24T04:16:08.653Z,0.24
2022-12-24T04:17:05.447Z,0.14
2022-12-24T04:18:02.147Z,0.08
2022-12-24T04:18:58.714Z,0.23
2022-12-24T04:19:56.034Z,0.29
2022-12-24T04:20:53.308Z,0.15
2022-12-24T04:21:49.974Z,-0.07
2022-12-24T04:22:46.724Z,-0.14
2022-12-24T04:23:43.893Z,-0.21
2022-12-24T04:24:40.555Z,-0.12
2022-12-24T04:25:37.323Z,-0.08
2022-12-24T04:26:34.109Z,0.03
2022-12-24T04:27:31.308Z,0.01
2022-12-24T04:28:29.915Z,0.08
2022-12-24T04:29:26.710Z,0.03
2022-12-24T04:30:23.318Z,0.05
2022-12-24T04:31:20.231Z,0.00
2022-12-24T04:32:17.031Z,0.00
2022-12-24T04:33:13.811Z,-0.24
2022-12-24T04:34:10.545Z,-0.28
2022-12-24T04:35:07.498Z,-0.14
2022-12-24T04:36:06.754Z,-0.28
2022-12-24T04:37:03.999Z,-0.45
2022-12-24T04:38:00.621Z,-0.39
2022-12-24T04:38:57.297Z,-0.33
2022-12-24T04:39:54.087Z,-0.23
2022-12-24T04:41:08.754Z,-0.26
2022-12-24T04:42:05.487Z,-0.13
2022-12-24T04:43:05.448Z,-0.02
2022-12-24T04:44:02.211Z,-0.32
2022-12-24T04:44:58.846Z,-0.44
2022-12-24T04:45:55.842Z,-0.57
2022-12-24T04:46:52.536Z,-0.66
2022-12-24T04:47:49.233Z,-0.42
2022-12-24T04:48:48.178Z,-0.33
2022-12-24T04:49:44.776Z,-0.51
2022-12-24T04:50:41.378Z,-0.43
2022-12-24T04:51:38.133Z,-0.45
2022-12-24T04:52:35.079Z,-0.52
2022-12-24T04:53:32.279Z,-0.12
2022-12-24T04:54:28.942Z,-0.25
2022-12-24T04:55:25.512Z,-0.40
2022-12-24T04:56:24.929Z,-0.47
2022-12-24T04:57:21.561Z,-0.34
2022-12-24T04:58:18.175Z,-0.43
2022-12-24T04:59:14.820Z,-0.52
2022-12-24T05:00:12.049Z,-0.79
2022-12-24T05:01:13.521Z,-0.55
2022-12-24T05:02:10.398Z,-0.64
2022-12-24T05:03:07.256Z,-0.70
2022-12-24T05:04:03.955Z,-0.55
2022-12-24T05:05:00.580Z,-0.54
2022-12-24T05:06:05.316Z,-0.58
2022-12-24T05:07:01.943Z,-0.58
2022-12-24T05:07:58.555Z,-0.69
2022-12-24T05:08:56.750Z,-0.61
2022-12-24T05:09:53.384Z,-0.40
2022-12-24T05:10:57.574Z,-0.76
2022-12-24T05:11:54.220Z,-0.66
2022-12-24T05:12:50.845Z,-0.98
2022-12-24T05:13:48.257Z,-0.77
2022-12-24T05:14:44.953Z,-0.55
2022-12-24T05:15:41.707Z,-0.60
2022-12-24T05:16:38.904Z,-0.56
2022-12-24T05:17:35.567Z,-0.46
2022-12-24T05:18:32.264Z,-0.38
2022-12-24T05:19:28.963Z,0.09
2022-12-24T05:20:25.553Z,-0.19
2022-12-24T05:21:23.932Z,-0.15
2022-12-24T05:22:39.095Z,0.02
2022-12-24T05:23:55.558Z,0.36
2022-12-24T05:25:15.204Z,0.21
2022-12-24T05:26:26.601Z,0.10
2022-12-24T05:27:23.294Z,0.31
2022-12-24T05:28:19.917Z,0.87
2022-12-24T05:29:16.621Z,0.90
2022-12-24T05:30:13.411Z,1.04
2022-12-24T05:31:10.104Z,1.11
2022-12-24T05:32:06.725Z,0.99
2022-12-24T05:33:03.523Z,0.96
2022-12-24T05:34:01.502Z,0.93
2022-12-24T05:34:58.164Z,0.50
2022-12-24T05:35:54.812Z,0.51
2022-12-24T05:36:51.454Z,0.40
2022-12-24T05:37:48.100Z,0.43
2022-12-24T05:38:44.661Z,0.48
2022-12-24T05:39:41.247Z,0.50
2022-12-24T05:40:37.813Z,0.44
2022-12-24T05:41:34.362Z,0.26
2022-12-24T05:42:31.062Z,0.18
2022-12-24T05:43:27.761Z,0.39
2022-12-24T05:44:24.367Z,0.20
2022-12-24T05:45:21.070Z,0.46
2022-12-24T05:46:20.259Z,0.59
2022-12-24T05:47:16.911Z,0.42
2022-12-24T05:48:13.525Z,0.94
2022-12-24T05:49:10.436Z,1.36
2022-12-24T05:50:07.625Z,1.34
2022-12-24T05:51:08.870Z,1.27
2022-12-24T05:52:05.572Z,1.38
2022-12-24T05:53:02.166Z,1.46
2022-12-24T05:53:58.786Z,1.94
2022-12-24T05:54:55.392Z,2.14
2022-12-24T05:55:51.944Z,2.19
2022-12-24T05:56:48.525Z,1.82
2022-12-24T05:57:45.148Z,2.12
2022-12-24T05:58:42.759Z,2.09
2022-12-24T05:59:39.343Z,2.07
2022-12-24T06:00:35.964Z,2.17
2022-12-24T06:01:32.634Z,2.15
2022-12-24T06:02:29.343Z,2.11
2022-12-24T06:03:25.976Z,2.26
2022-12-24T06:04:28.426Z,2.07
2022-12-24T06:05:25.640Z,2.35
2022-12-24T06:06:24.718Z,2.29
2022-12-24T06:07:21.570Z,2.12
2022-12-24T06:08:18.348Z,1.69
2022-12-24T06:09:15.300Z,1.13
2022-12-24T06:10:11.910Z,1.28
2022-12-24T06:11:12.009Z,1.33
2022-12-24T06:12:08.649Z,1.32
2022-12-24T06:13:05.242Z,1.06
2022-12-24T06:14:01.866Z,1.22
2022-12-24T06:14:58.411Z,1.11
2022-12-24T06:15:59.968Z,1.27
2022-12-24T06:16:56.560Z,1.23
2022-12-24T06:17:53.135Z,1.07
2022-12-24T06:18:50.108Z,0.96
2022-12-24T06:19:46.723Z,0.96
2022-12-24T06:20:43.353Z,0.92
2022-12-24T06:21:40.011Z,0.88
2022-12-24T06:22:36.615Z,0.79
2022-12-24T06:23:35.258Z,0.61
2022-12-24T06:24:31.933Z,0.89
2022-12-24T06:25:28.513Z,0.96
2022-12-24T06:26:25.087Z,1.09
2022-12-24T06:27:21.773Z,0.97
2022-12-24T06:28:18.838Z,0.84
2022-12-24T06:29:15.478Z,1.05
2022-12-24T06:30:12.311Z,1.01
2022-12-24T06:31:13.136Z,1.04
2022-12-24T06:32:09.781Z,1.06
2022-12-24T06:33:06.418Z,1.06
2022-12-24T06:34:08.470Z,1.14
2022-12-24T06:35:05.283Z,1.37
2022-12-24T06:36:04.377Z,1.45
2022-12-24T06:37:01.000Z,1.34
2022-12-24T06:37:57.656Z,1.37
2022-12-24T06:38:55.470Z,1.43
2022-12-24T06:39:52.046Z,1.80
2022-12-24T06:40:48.863Z,1.90
2022-12-24T06:41:45.509Z,1.80
2022-12-24T06:42:42.123Z,1.75
2022-12-24T06:43:38.775Z,1.71
2022-12-24T06:44:35.579Z,1.59
2022-12-24T06:45:32.294Z,1.49
2022-12-24T06:46:29.087Z,1.78
2022-12-24T06:47:25.861Z,1.94
2022-12-24T06:48:22.612Z,2.09
2022-12-24T06:49:19.203Z,1.99
2022-12-24T06:50:16.230Z,2.23
2022-12-24T06:51:14.564Z,2.35
2022-12-24T06:52:11.163Z,2.57
2022-12-24T06:53:08.303Z,2.30
2022-12-24T06:54:04.974Z,1.98
2022-12-24T06:55:01.785Z,1.82
2022-12-24T06:56:06.182Z,1.75
2022-12-24T06:57:02.825Z,1.64
2022-12-24T06:57:59.463Z,1.66
2022-12-24T06:59:01.551Z,1.66
2022-12-24T07:00:01.622Z,1.66
2022-12-24T07:00:58.195Z,1.73
2022-12-24T07:01:54.884Z,1.89
2022-12-24T07:02:51.744Z,1.95
2022-12-24T07:03:48.628Z,1.84
2022-12-24T07:04:45.322Z,2.13
2022-12-24T07:05:42.368Z,2.27
2022-12-24T07:06:39.022Z,2.33
2022-12-24T07:07:39.218Z,2.11
2022-12-24T07:08:36.468Z,2.41
2022-12-24T07:09:33.204Z,2.45
2022-12-24T07:10:29.927Z,2.50
2022-12-24T07:11:26.841Z,2.50
2022-12-24T07:12:23.510Z,2.59
2022-12-24T07:13:20.161Z,2.75
2022-12-24T07:14:16.714Z,2.81
2022-12-24T07:15:15.048Z,2.92
2022-12-24T07:16:11.746Z,2.95
2022-12-24T07:17:08.632Z,3.05
2022-12-24T07:18:05.354Z,3.22
2022-12-24T07:19:04.036Z,3.19
2022-12-24T07:20:00.675Z,3.05
2022-12-24T07:20:58.176Z,2.92
2022-12-24T07:21:54.728Z,2.82
2022-12-24T07:22:51.307Z,2.48
2022-12-24T07:23:47.925Z,2.64
2022-12-24T07:24:44.501Z,2.56
2022-12-24T07:25:43.048Z,2.58
2022-12-24T07:26:39.718Z,2.61
2022-12-24T07:27:37.007Z,2.60
2022-12-24T07:28:34.018Z,2.43
2022-12-24T07:29:30.703Z,2.60
2022-12-24T07:30:27.372Z,2.51
2022-12-24T07:31:23.979Z,2.29
2022-12-24T07:32:20.845Z,2.38
2022-12-24T07:33:17.437Z,2.45
2022-12-24T07:34:14.068Z,2.38
2022-12-24T07:35:10.768Z,2.50
2022-12-24T07:36:10.659Z,2.46
2022-12-24T07:37:07.884Z,2.39
2022-12-24T07:38:04.483Z,2.62
2022-12-24T07:39:01.114Z,2.60
2022-12-24T07:39:57.762Z,2.69
2022-12-24T07:40:54.741Z,2.65
2022-12-24T07:41:51.445Z,2.65
2022-12-24T07:42:48.002Z,2.61
2022-12-24T07:43:44.785Z,2.73
2022-12-24T07:44:41.429Z,2.54
2022-12-24T07:45:39.523Z,2.76
2022-12-24T07:46:36.195Z,2.58
2022-12-24T07:47:33.051Z,2.77
2022-12-24T07:48:30.964Z,2.37
2022-12-24T07:49:27.692Z,2.84
2022-12-24T07:50:24.384Z,2.52
2022-12-24T07:51:21.043Z,2.71
2022-12-24T07:52:17.674Z,2.83
2022-12-24T07:53:14.236Z,2.90
2022-12-24T07:54:10.964Z,2.80
2022-12-24T07:55:07.888Z,2.73
2022-12-24T07:56:10.470Z,2.70
2022-12-24T07:57:09.267Z,2.71
2022-12-24T07:58:05.984Z,2.81
2022-12-24T07:59:02.579Z,2.82
2022-12-24T07:59:59.259Z,2.83
2022-12-24T08:00:58.155Z,2.74
2022-12-24T08:01:54.867Z,2.81
2022-12-24T08:02:51.775Z,2.82
2022-12-24T08:03:48.622Z,2.87
2022-12-24T08:04:45.435Z,3.02
2022-12-24T08:05:42.083Z,3.11
2022-12-24T08:06:39.342Z,3.15
2022-12-24T08:07:35.954Z,3.08
2022-12-24T08:08:32.525Z,3.09
2022-12-24T08:09:35.359Z,3.03
2022-12-24T08:10:31.921Z,3.07
2022-12-24T08:11:28.635Z,3.09
2022-12-24T08:12:25.364Z,3.24
2022-12-24T08:13:21.973Z,3.11
2022-12-24T08:14:18.624Z,2.88
2022-12-24T08:15:15.320Z,3.12
2022-12-24T08:16:12.233Z,2.88
2022-12-24T08:17:09.017Z,3.01
2022-12-24T08:18:05.754Z,2.89
2022-12-24T08:19:02.407Z,3.03
2022-12-24T08:19:59.072Z,2.88
2022-12-24T08:20:55.668Z,2.98
2022-12-24T08:21:52.255Z,2.92
2022-12-24T08:22:48.853Z,2.97
2022-12-24T08:23:47.270Z,2.87
2022-12-24T08:24:43.943Z,2.72
2022-12-24T08:25:45.412Z,2.96
2022-12-24T08:26:42.285Z,3.06
2022-12-24T08:27:39.101Z,3.14
2022-12-24T08:28:36.563Z,2.90
2022-12-24T08:29:33.202Z,2.76
2022-12-24T08:30:30.225Z,2.96
2022-12-24T08:31:26.990Z,2.80
2022-12-24T08:32:23.754Z,2.90
2022-12-24T08:33:20.895Z,2.91
2022-12-24T08:34:17.453Z,3.26
2022-12-24T08:35:14.212Z,3.43
2022-12-24T08:36:10.862Z,3.30
2022-12-24T08:37:07.439Z,3.09
2022-12-24T08:38:04.128Z,3.00
2022-12-24T08:39:03.935Z,3.23
2022-12-24T08:40:00.588Z,3.20
2022-12-24T08:40:57.298Z,3.25
2022-12-24T08:41:54.021Z,3.42
2022-12-24T08:42:50.807Z,3.37
2022-12-24T08:43:47.427Z,3.38
2022-12-24T08:44:44.297Z,3.21
2022-12-24T08:45:41.327Z,3.13
2022-12-24T08:46:38.017Z,3.11
2022-12-24T08:47:34.704Z,3.40
2022-12-24T08:48:32.974Z,3.57
2022-12-24T08:49:29.579Z,3.60
2022-12-24T08:50:28.467Z,3.44
2022-12-24T08:51:25.133Z,3.31
2022-12-24T08:52:21.731Z,3.37
2022-12-24T08:53:18.356Z,3.53
2022-12-24T08:54:15.031Z,3.51
2022-12-24T08:55:11.686Z,3.80
2022-12-24T08:56:10.387Z,3.71
2022-12-24T08:57:07.006Z,3.60
2022-12-24T08:58:03.693Z,3.60
2022-12-24T08:59:01.341Z,3.63
2022-12-24T08:59:57.902Z,3.56
2022-12-24T09:00:54.451Z,3.26
2022-12-24T09:01:51.222Z,3.18
2022-12-24T09:02:48.175Z,3.36
2022-12-24T09:03:45.100Z,3.22
2022-12-24T09:04:41.962Z,3.32
2022-12-24T09:05:40.260Z,3.44
2022-12-24T09:06:36.903Z,3.38
2022-12-24T09:07:33.594Z,3.43
2022-12-24T09:08:30.173Z,3.31
2022-12-24T09:09:34.114Z,3.20
2022-12-24T09:10:34.338Z,2.93
2022-12-24T09:11:31.822Z,2.90
2022-12-24T09:12:29.043Z,2.95
2022-12-24T09:13:25.653Z,3.21
2022-12-24T09:14:22.338Z,3.18
2022-12-24T09:15:19.590Z,3.17
2022-12-24T09:16:16.380Z,3.29
2022-12-24T09:17:13.073Z,2.97
2022-12-24T09:18:10.698Z,3.30
2022-12-24T09:19:07.392Z,3.30
2022-12-24T09:20:07.029Z,3.55
2022-12-24T09:21:08.134Z,3.47
2022-12-24T09:22:04.977Z,3.39
2022-12-24T09:23:01.671Z,3.69
2022-12-24T09:24:00.441Z,3.56
2022-12-24T09:24:57.169Z,3.56
2022-12-24T09:25:53.799Z,3.52
2022-12-24T09:26:57.344Z,3.55
2022-12-24T09:27:54.439Z,3.89
2022-12-24T09:28:52.698Z,3.72
2022-12-24T09:29:49.315Z,3.77
2022-12-24T09:30:45.883Z,3.74
2022-12-24T09:31:43.393Z,3.88
2022-12-24T09:32:40.153Z,3.77
2022-12-24T09:33:39.042Z,4.12
2022-12-24T09:34:35.712Z,4.12
2022-12-24T09:35:32.382Z,4.30
2022-12-24T09:36:28.945Z,4.30
2022-12-24T09:37:25.751Z,4.14
2022-12-24T09:38:22.461Z,3.99
2022-12-24T09:39:19.064Z,3.92
2022-12-24T09:40:26.008Z,3.94
2022-12-24T09:41:29.569Z,4.05
2022-12-24T09:42:41.174Z,3.76
2022-12-24T09:43:38.077Z,3.66
2022-12-24T09:44:49.409Z,3.94
2022-12-24T09:46:13.775Z,4.12
2022-12-24T09:47:22.601Z,4.24
2022-12-24T09:48:24.306Z,3.85
2022-12-24T09:49:31.911Z,3.91
2022-12-24T09:50:53.261Z,3.89
2022-12-24T09:51:55.551Z,3.81
2022-12-24T09:52:52.588Z,4.00
2022-12-24T09:53:56.864Z,4.06
2022-12-24T09:55:08.350Z,4.05
2022-12-24T09:56:12.144Z,4.23
2022-12-24T09:57:21.986Z,4.16
2022-12-24T09:58:35.422Z,4.11
2022-12-24T09:59:52.426Z,4.42
2022-12-24T10:00:50.511Z,4.51
2022-12-24T10:01:49.499Z,4.43
2022-12-24T10:02:46.601Z,4.48
2022-12-24T10:03:44.083Z,4.51
2022-12-24T10:04:42.864Z,4.50
2022-12-24T10:05:51.500Z,4.44
2022-12-24T10:06:59.204Z,4.78
2022-12-24T10:08:08.756Z,4.93
2022-12-24T10:09:29.795Z,4.82
2022-12-24T10:10:43.017Z,5.13
2022-12-24T10:11:46.402Z,4.87
2022-12-24T10:12:58.410Z,4.52
2022-12-24T10:14:27.153Z,4.68
2022-12-24T10:15:42.524Z,4.99
2022-12-24T10:17:14.315Z,5.10
2022-12-24T10:18:26.236Z,5.38
2022-12-24T10:19:33.803Z,5.32
2022-12-24T10:20:42.180Z,5.29
2022-12-24T10:22:07.977Z,5.44
2022-12-24T10:23:46.560Z,5.47
2022-12-24T10:24:56.441Z,5.55
2022-12-24T10:26:08.277Z,5.59
2022-12-24T10:27:15.099Z,5.76
2022-12-24T10:28:18.291Z,5.82
2022-12-24T10:29:28.192Z,6.12
2022-12-24T10:30:25.313Z,6.05
2022-12-24T10:31:41.632Z,6.30
2022-12-24T10:32:39.026Z,6.35
2022-12-24T10:33:43.051Z,6.38
2022-12-24T10:34:53.609Z,6.35
2022-12-24T10:35:55.050Z,6.93
2022-12-24T10:36:52.003Z,6.90
2022-12-24T10:37:51.081Z,6.90
2022-12-24T10:38:47.816Z,6.84
2022-12-24T10:39:44.627Z,6.83
2022-12-24T10:40:44.952Z,6.80
2022-12-24T10:41:41.817Z,6.88
2022-12-24T10:42:50.890Z,6.52
2022-12-24T10:43:48.964Z,6.44
2022-12-24T10:44:50.744Z,6.78
2022-12-24T10:45:55.692Z,6.50
2022-12-24T10:46:52.300Z,6.78
2022-12-24T10:47:54.775Z,6.60
2022-12-24T10:48:53.455Z,6.75
2022-12-24T10:50:14.013Z,6.91
2022-12-24T10:51:40.469Z,6.79
2022-12-24T10:52:40.580Z,6.68
2022-12-24T10:53:43.138Z,6.71
2022-12-24T10:55:11.447Z,6.07
2022-12-24T10:56:10.662Z,6.64
2022-12-24T10:57:25.467Z,6.50
2022-12-24T10:58:22.190Z,6.56
2022-12-24T10:59:29.375Z,6.21
2022-12-24T11:00:30.237Z,6.24
2022-12-24T11:01:45.510Z,6.39
2022-12-24T11:02:42.335Z,6.24
2022-12-24T11:03:39.953Z,6.43
2022-12-24T11:04:51.941Z,6.21
2022-12-24T11:06:14.043Z,6.02
2022-12-24T11:07:19.835Z,5.83
2022-12-24T11:08:20.296Z,5.75
2022-12-24T11:09:36.555Z,5.71
2022-12-24T11:10:36.813Z,5.62
2022-12-24T11:11:35.544Z,6.05
2022-12-24T11:12:40.236Z,6.06
2022-12-24T11:13:52.231Z,4.95
2022-12-24T11:14:59.070Z,5.88
2022-12-24T11:16:16.469Z,6.12
2022-12-24T11:17:23.794Z,5.56
2022-12-24T11:18:20.486Z,5.73
2022-12-24T11:19:20.683Z,5.80
2022-12-24T11:20:26.422Z,5.62
2022-12-24T11:21:26.296Z,5.73
2022-12-24T11:22:30.753Z,5.81
2022-12-24T11:23:29.165Z,5.95
2022-12-24T11:24:34.932Z,5.40
2022-12-24T11:25:40.206Z,5.76
2022-12-24T11:26:36.846Z,6.01
2022-12-24T11:27:39.186Z,6.15
2022-12-24T11:28:37.342Z,6.15
2022-12-24T11:29:34.033Z,5.92
2022-12-24T11:30:32.209Z,6.23
2022-12-24T11:31:29.489Z,6.16
2022-12-24T11:32:26.171Z,6.02
2022-12-24T11:33:23.266Z,5.97
2022-12-24T11:34:30.611Z,5.81
2022-12-24T11:35:29.558Z,5.78
2022-12-24T11:36:27.716Z,5.35
2022-12-24T11:37:25.181Z,5.61
2022-12-24T11:38:25.192Z,5.67
2022-12-24T11:39:24.807Z,5.54
2022-12-24T11:40:23.998Z,5.03
2022-12-24T11:41:20.875Z,5.38
2022-12-24T11:42:32.839Z,5.33
2022-12-24T11:43:44.673Z,5.37
2022-12-24T11:44:49.050Z,5.38
2022-12-24T11:45:51.848Z,5.40
2022-12-24T11:46:52.483Z,5.33
2022-12-24T11:47:49.426Z,5.38
2022-12-24T11:48:46.719Z,5.49
2022-12-24T11:49:43.392Z,5.54
2022-12-24T11:50:40.006Z,5.44
2022-12-24T11:51:36.608Z,5.62
2022-12-24T11:52:33.477Z,5.63
2022-12-24T11:53:38.845Z,5.52
2022-12-24T11:54:48.647Z,5.57
2022-12-24T11:55:49.612Z,5.41
2022-12-24T11:56:50.052Z,5.38
2022-12-24T11:57:59.444Z,5.39
2022-12-24T11:59:02.427Z,5.48
2022-12-24T11:59:59.229Z,5.53
2022-12-24T12:01:25.271Z,5.61
2022-12-24T12:02:28.353Z,5.33
2022-12-24T12:03:32.580Z,5.71
2022-12-24T12:04:33.161Z,5.83
2022-12-24T12:05:35.203Z,5.78
2022-12-24T12:06:42.042Z,5.80
2022-12-24T12:07:39.232Z,5.85
2022-12-24T12:08:37.788Z,5.63
2022-12-24T12:09:40.735Z,5.23
2022-12-24T12:10:41.223Z,5.47
2022-12-24T12:11:40.864Z,5.52
2022-12-24T12:12:51.047Z,5.59
2022-12-24T12:13:48.248Z,5.73
2022-12-24T12:14:55.869Z,5.60
2022-12-24T12:16:26.395Z,5.64
2022-12-24T12:17:42.038Z,5.62
2022-12-24T12:18:42.164Z,5.52
2022-12-24T12:19:48.702Z,5.59
2022-12-24T12:20:53.102Z,5.82
2022-12-24T12:21:50.112Z,5.75
2022-12-24T12:23:01.653Z,5.86
2022-12-24T12:24:13.114Z,5.71
2022-12-24T12:25:21.825Z,5.91
2022-12-24T12:26:28.418Z,5.93
2022-12-24T12:27:46.615Z,5.90
2022-12-24T12:28:49.500Z,5.95
2022-12-24T12:29:52.479Z,6.11
2022-12-24T12:31:02.222Z,5.82
2022-12-24T12:32:06.636Z,5.83
2022-12-24T12:33:20.576Z,5.98
2022-12-24T12:34:26.800Z,5.94
2022-12-24T12:35:28.351Z,5.76
2022-12-24T12:36:31.471Z,6.06
2022-12-24T12:37:37.017Z,5.92
2022-12-24T12:38:33.863Z,5.89
2022-12-24T12:39:31.809Z,5.88
2022-12-24T12:40:50.595Z,6.10
2022-12-24T12:42:15.257Z,6.08
2022-12-24T12:43:47.704Z,6.24
2022-12-24T12:44:56.237Z,6.21
2022-12-24T12:46:21.357Z,6.27
2022-12-24T12:47:36.951Z,6.29
2022-12-24T12:49:09.774Z,6.33
2022-12-24T12:50:18.293Z,6.30
2022-12-24T12:51:24.516Z,6.38
2022-12-24T12:52:50.504Z,6.64
2022-12-24T12:54:31.824Z,6.65
2022-12-24T12:55:46.269Z,6.62
2022-12-24T12:56:49.016Z,6.52
2022-12-24T12:57:47.487Z,6.28
2022-12-24T12:58:51.302Z,6.50
2022-12-24T13:00:05.290Z,6.48
2022-12-24T13:01:26.035Z,6.40
2022-12-24T13:02:56.469Z,6.54
2022-12-24T13:04:30.626Z,6.85
2022-12-24T13:05:39.355Z,6.84
2022-12-24T13:06:51.222Z,6.63
2022-12-24T13:08:07.352Z,6.57
2022-12-24T13:09:36.070Z,6.56
2022-12-24T13:11:03.848Z,6.37
2022-12-24T13:12:33.304Z,6.37
2022-12-24T13:13:46.177Z,6.54
2022-12-24T13:15:22.455Z,6.33
2022-12-24T13:16:45.292Z,6.30
2022-12-24T13:18:18.878Z,6.39
2022-12-24T13:19:37.631Z,6.25
2022-12-24T13:20:40.834Z,6.13
2022-12-24T13:21:44.162Z,6.26
2022-12-24T13:22:48.919Z,6.04
2022-12-24T13:23:45.688Z,6.30
2022-12-24T13:24:51.917Z,6.34
2022-12-24T13:25:54.910Z,6.39
2022-12-24T13:27:10.256Z,6.45
2022-12-24T13:28:25.179Z,6.50
2022-12-24T13:29:32.151Z,6.49
2022-12-24T13:30:40.498Z,6.19
2022-12-24T13:31:37.258Z,5.95
2022-12-24T13:32:33.826Z,6.51